Time;durP1;ratioP1;P1;durP2;ratioP2;P2;SDS_P1;SDS_P2;PMS_P1;PMS_P2;Temp;Humidity;BMP_temperature;BMP_pressure;BME280_temperature;BME280_humidity;BME280_pressure;Samples;Min_cycle;Max_cycle;Signal;HPM_P1;HPM_P2
2022/06/13 00:03:24;;;;;;;5.70;3.40;;;;;;;12.43;100.00;96666.13;10371825;28;20232;-50
2022/06/13 00:08:25;;;;;;;6.50;3.97;;;;;;;12.42;100.00;96646.91;10370643;28;20280;-49
2022/06/13 00:13:25;;;;;;;7.30;3.50;;;;;;;12.42;100.00;96638.19;10371571;28;20627;-52
2022/06/13 00:18:26;;;;;;;5.63;3.30;;;;;;;12.38;100.00;96639.53;10371475;28;20194;-49
2022/06/13 00:23:26;;;;;;;5.47;3.00;;;;;;;12.28;100.00;96639.72;10371121;28;20308;-49
2022/06/13 00:28:27;;;;;;;5.85;3.25;;;;;;;12.31;100.00;96644.63;10371102;28;20201;-51
2022/06/13 00:33:27;;;;;;;3.90;3.10;;;;;;;12.21;100.00;96639.59;10370830;28;20292;-51
2022/06/13 00:38:27;;;;;;;6.83;4.00;;;;;;;11.95;100.00;96635.38;10370992;28;20195;-54
2022/06/13 00:43:28;;;;;;;5.00;3.20;;;;;;;11.97;100.00;96632.56;10370072;28;20230;-50
2022/06/13 00:48:29;;;;;;;7.80;3.07;;;;;;;11.95;100.00;96629.31;10370220;28;20200;-53
2022/06/13 00:53:31;;;;;;;7.37;3.83;;;;;;;11.85;100.00;96623.38;10370017;28;20785;-49
2022/06/13 00:58:35;;;;;;;11.13;4.40;;;;;;;11.85;100.00;96613.72;10352087;28;20321;-51
2022/06/13 01:03:36;;;;;;;5.70;3.43;;;;;;;11.77;100.00;96611.09;10351259;28;20221;-52
2022/06/13 01:08:38;;;;;;;10.03;3.70;;;;;;;11.66;100.00;96608.81;10368782;28;20193;-49
2022/06/13 01:13:58;;;;;;;9.23;3.17;;;;;;;11.65;100.00;96607.19;10368892;28;20727;-52
2022/06/13 01:19:29;;;;;;;5.30;3.47;;;;;;;11.68;100.00;96619.97;10367996;28;20223;-51
2022/06/13 01:24:59;;;;;;;6.47;3.60;;;;;;;11.66;100.00;96606.19;10367136;28;20279;-50
2022/06/13 01:30:23;;;;;;;4.47;3.20;;;;;;;11.64;100.00;96592.41;10368757;28;20255;-50
2022/06/13 01:35:43;;;;;;;7.30;3.40;;;;;;;11.71;100.00;96603.88;10368145;28;21166;-50
2022/06/13 01:41:05;;;;;;;5.83;3.30;;;;;;;11.67;100.00;96594.69;10368467;28;20236;-51
2022/06/13 01:46:31;;;;;;;5.77;3.30;;;;;;;11.73;100.00;96604.53;10350474;28;20269;-51
2022/06/13 01:51:41;;;;;;;5.87;3.47;;;;;;;11.69;100.00;96600.63;10367745;28;20212;-50
2022/06/13 01:56:52;;;;;;;4.60;3.13;;;;;;;11.70;100.00;96597.84;10367947;28;20257;-53
2022/06/13 02:02:10;;;;;;;5.37;3.03;;;;;;;11.77;100.00;96585.66;10350061;28;20312;-54
2022/06/13 02:07:18;;;;;;;5.33;2.93;;;;;;;11.81;100.00;96583.53;10365796;28;20205;-54
2022/06/13 02:12:21;;;;;;;4.73;2.43;;;;;;;11.78;100.00;96579.44;10366120;28;20767;-56
2022/06/13 02:17:24;;;;;;;7.83;3.40;;;;;;;11.73;100.00;96588.78;10349206;28;20193;-55
2022/06/13 02:22:30;;;;;;;5.77;3.00;;;;;;;11.78;100.00;96587.31;10365630;28;20597;-50
2022/06/13 02:27:36;;;;;;;7.67;3.47;;;;;;;11.80;100.00;96579.25;10366455;28;20579;-54
2022/06/13 02:32:51;;;;;;;4.33;2.80;;;;;;;11.85;100.00;96591.88;10366793;28;20627;-57
2022/06/13 02:38:13;;;;;;;6.83;2.70;;;;;;;11.89;100.00;96587.94;10348809;28;20181;-54
2022/06/13 02:43:18;;;;;;;3.77;2.70;;;;;;;11.84;100.00;96588.44;10349150;28;20247;-53
2022/06/13 02:48:36;;;;;;;8.77;2.97;;;;;;;11.86;100.00;96585.66;10364843;28;20672;-56
2022/06/13 02:53:57;;;;;;;5.97;2.78;;;;;;;11.99;100.00;96596.50;10365237;28;20213;-52
2022/06/13 02:59:11;;;;;;;6.33;2.90;;;;;;;12.02;100.00;96597.94;10348448;28;20193;-55
2022/06/13 03:04:15;;;;;;;6.23;2.80;;;;;;;11.91;100.00;96581.56;10347640;28;20680;-51
2022/06/13 03:09:26;;;;;;;8.93;2.93;;;;;;;11.83;100.00;96575.50;10348362;28;20198;-52
2022/06/13 03:14:35;;;;;;;7.10;3.23;;;;;;;11.88;100.00;96584.50;10348170;28;20241;-55
2022/06/13 03:19:41;;;;;;;4.17;2.63;;;;;;;12.03;100.00;96600.41;10365554;28;20189;-50
2022/06/13 03:24:53;;;;;;;7.47;2.93;;;;;;;12.07;100.00;96627.97;10348039;28;20232;-53
2022/06/13 03:30:05;;;;;;;4.70;3.17;;;;;;;11.88;100.00;96636.19;10348154;28;20672;-53
2022/06/13 03:35:11;;;;;;;4.80;2.97;;;;;;;11.89;100.00;96638.63;10347677;28;20596;-51
2022/06/13 03:40:22;;;;;;;6.20;3.27;;;;;;;11.74;100.00;96633.22;10349063;28;20240;-50
2022/06/13 03:45:30;;;;;;;4.70;2.90;;;;;;;11.93;100.00;96641.78;10372787;28;20209;-51
2022/06/13 03:50:46;;;;;;;4.33;2.80;;;;;;;11.93;100.00;96626.84;10372422;28;20276;-54
2022/06/13 03:55:57;;;;;;;6.70;2.80;;;;;;;12.00;100.00;96619.13;10372396;28;20220;-54
2022/06/13 04:01:03;;;;;;;6.47;3.10;;;;;;;12.11;100.00;96637.16;10371708;28;20229;-54
2022/06/13 04:06:32;;;;;;;6.97;2.95;;;;;;;12.45;100.00;96636.06;10354195;28;20717;-51
2022/06/13 04:12:14;;;;;;;11.13;2.90;;;;;;;12.29;100.00;96630.88;10371759;28;20189;-54
2022/06/13 04:17:29;;;;;;;8.27;2.80;;;;;;;12.22;100.00;96640.41;10368218;28;20212;-52
2022/06/13 04:22:41;;;;;;;7.35;3.17;;;;;;;12.34;100.00;96646.94;10370794;28;20309;-53
2022/06/13 04:28:03;;;;;;;4.47;2.92;;;;;;;12.40;100.00;96648.88;10353480;28;20560;-52
2022/06/13 04:33:12;;;;;;;4.28;2.92;;;;;;;12.27;100.00;96664.38;10353444;28;20209;-51
2022/06/13 04:38:14;;;;;;;8.90;3.40;;;;;;;12.58;100.00;96655.72;10353346;28;20196;-51
2022/06/13 04:43:17;;;;;;;7.65;2.75;;;;;;;12.88;100.00;96640.13;10353422;28;20228;-51
2022/06/13 04:48:18;;;;;;;7.43;2.85;;;;;;;12.85;100.00;96631.59;10353020;28;20272;-50
2022/06/13 04:53:21;;;;;;;7.10;2.67;;;;;;;12.91;99.75;96624.00;10370012;28;20216;-53
2022/06/13 04:58:31;;;;;;;7.82;2.80;;;;;;;12.99;100.00;96637.94;10369912;28;20771;-50
2022/06/13 05:03:36;;;;;;;5.68;2.72;;;;;;;12.93;100.00;96638.63;10369882;28;20664;-53
2022/06/13 05:08:40;;;;;;;6.80;2.80;;;;;;;13.08;98.41;96636.09;10370044;28;20247;-56
2022/06/13 05:13:40;;;;;;;9.40;2.53;;;;;;;13.34;98.16;96641.03;10353495;28;20594;-56
2022/06/13 05:19:17;;;;;;;6.70;2.45;;;;;;;13.82;95.52;96640.81;10369499;28;20201;-56
2022/06/13 05:24:33;;;;;;;8.52;3.00;;;;;;;14.15;92.96;96624.69;10360674;28;20245;-56
2022/06/13 05:29:33;;;;;;;4.55;2.60;;;;;;;14.52;90.32;96630.03;10330219;28;20216;-52
2022/06/13 05:34:36;;;;;;;7.55;2.83;;;;;;;14.66;87.81;96636.34;10328170;28;20296;-55
2022/06/13 05:39:36;;;;;;;11.07;2.92;;;;;;;14.93;87.47;96650.63;10328252;28;20182;-54
2022/06/13 05:44:37;;;;;;;11.43;2.83;;;;;;;14.81;88.44;96655.59;10310496;28;20233;-53
2022/06/13 05:49:37;;;;;;;12.10;2.88;;;;;;;15.42;84.07;96612.16;10327433;28;20202;-52
2022/06/13 05:54:38;;;;;;;6.70;2.45;;;;;;;15.82;81.74;96610.69;10310403;28;20293;-56
2022/06/13 05:59:38;;;;;;;11.32;2.40;;;;;;;16.02;81.29;96631.97;10327110;28;20201;-54
2022/06/13 06:04:38;;;;;;;15.30;2.78;;;;;;;16.55;78.33;96598.91;10326438;28;20669;-53
2022/06/13 06:09:39;;;;;;;10.73;2.30;;;;;;;16.79;75.88;96592.28;10327360;28;20735;-57
2022/06/13 06:14:39;;;;;;;6.65;2.22;;;;;;;16.86;75.70;96593.16;10326253;28;20257;-53
2022/06/13 06:19:40;;;;;;;7.93;2.88;;;;;;;17.00;74.73;96601.94;10327244;28;20193;-53
2022/06/13 06:24:40;;;;;;;7.80;2.45;;;;;;;17.29;74.49;96607.91;10326367;28;20226;-57
2022/06/13 06:29:41;;;;;;;9.68;2.42;;;;;;;17.14;73.56;96597.50;10326826;28;20335;-57
2022/06/13 06:34:41;;;;;;;10.52;2.47;;;;;;;18.76;67.78;96529.94;10326382;28;20222;-55
2022/06/13 06:39:42;;;;;;;7.05;2.10;;;;;;;18.49;66.26;96512.31;10354906;28;20275;-54
2022/06/13 06:44:42;;;;;;;7.45;2.25;;;;;;;18.75;67.30;96542.41;10366828;28;21001;-58
2022/06/13 06:49:42;;;;;;;4.88;1.95;;;;;;;19.80;64.29;96517.16;10359638;28;20730;-53
2022/06/13 07:00:04;;;;;;;12.77;4.38;;;;;;;18.93;66.73;96573.59;10365491;28;20197;-57
2022/06/13 07:05:06;;;;;;;7.10;1.92;;;;;;;19.71;65.42;96566.25;10364356;28;20212;-56
2022/06/13 07:10:08;;;;;;;8.73;2.65;;;;;;;18.95;66.95;96602.56;10364569;28;20194;-52
2022/06/13 07:15:09;;;;;;;9.25;2.72;;;;;;;19.06;66.83;96601.88;10337159;28;20240;-56
2022/06/13 07:20:13;;;;;;;8.93;2.70;;;;;;;19.51;67.05;96604.47;10326400;28;20735;-54
2022/06/13 07:25:19;;;;;;;6.65;2.70;;;;;;;20.71;62.61;96543.97;10328696;28;20588;-51
2022/06/13 07:30:23;;;;;;;7.28;2.15;;;;;;;20.15;63.21;96561.78;10333225;28;20244;-52
2022/06/13 07:35:24;;;;;;;6.63;2.30;;;;;;;19.58;64.58;96577.84;10334323;28;20217;-53
2022/06/13 07:40:25;;;;;;;7.57;2.35;;;;;;;18.69;65.31;96591.03;10334551;28;20264;-53
2022/06/13 07:45:28;;;;;;;7.00;2.30;;;;;;;19.03;64.63;96571.25;10333965;28;20214;-57
2022/06/13 07:50:29;;;;;;;6.40;2.20;;;;;;;19.17;63.30;96552.59;10333700;28;20269;-52
2022/06/13 07:55:30;;;;;;;10.70;2.38;;;;;;;19.34;63.76;96566.16;10333706;28;20795;-56
2022/06/13 08:00:34;;;;;;;4.25;1.92;;;;;;;19.15;65.03;96589.97;10315076;28;20214;-56
2022/06/13 08:05:34;;;;;;;9.23;2.10;;;;;;;19.49;63.61;96569.31;10333155;28;20206;-56
2022/06/13 08:10:37;;;;;;;9.82;2.58;;;;;;;19.41;63.71;96567.72;10333001;28;20194;-53
2022/06/13 08:15:37;;;;;;;5.75;2.00;;;;;;;19.51;62.36;96551.31;10359994;28;20260;-57
2022/06/13 08:20:38;;;;;;;9.02;2.67;;;;;;;18.44;66.34;96622.75;10449064;23;20736;-55
2022/06/13 08:25:40;;;;;;;7.55;1.88;;;;;;;19.42;64.25;96589.81;10426904;28;20195;-59
2022/06/13 08:30:53;;;;;;;5.15;2.20;;;;;;;19.24;62.53;96545.41;10443454;28;20204;-59
2022/06/13 08:35:53;;;;;;;9.63;2.42;;;;;;;19.03;63.05;96560.63;10396597;28;20197;-56
2022/06/13 08:41:01;;;;;;;6.07;2.20;;;;;;;19.25;65.08;96606.28;10421007;28;20232;-56
2022/06/13 08:46:10;;;;;;;11.02;3.00;;;;;;;19.37;65.00;96602.91;10424580;28;20241;-57
2022/06/13 08:51:13;;;;;;;11.43;3.08;;;;;;;18.77;67.90;96654.47;10426062;28;20633;-57
2022/06/13 08:56:16;;;;;;;11.95;3.60;;;;;;;19.14;68.21;96662.72;10448619;28;20218;-58
2022/06/13 09:01:25;;;;;;;6.43;2.50;;;;;;;19.12;66.84;96637.41;10429150;28;20271;-59
2022/06/13 09:06:46;;;;;;;14.45;2.88;;;;;;;18.35;69.20;96672.56;10432382;28;20866;-57
2022/06/13 09:11:54;;;;;;;12.82;2.38;;;;;;;17.40;71.84;96693.91;10450312;28;20662;-56
2022/06/13 09:17:09;;;;;;;8.82;2.80;;;;;;;17.16;73.47;96732.31;10450289;28;20234;-54
2022/06/13 09:22:35;;;;;;;9.63;2.63;;;;;;;17.18;72.85;96724.97;10432251;28;20220;-54
2022/06/13 09:27:39;;;;;;;8.75;2.88;;;;;;;17.08;72.68;96726.16;10423741;28;20216;-57
2022/06/13 09:32:45;;;;;;;6.15;2.30;;;;;;;17.29;71.18;96708.53;10397559;28;20211;-53
2022/06/13 09:38:05;;;;;;;11.85;2.42;;;;;;;17.45;70.81;96702.84;10411300;28;20613;-54
2022/06/13 09:43:09;;;;;;;9.55;2.38;;;;;;;19.10;66.99;96650.91;10408061;28;20739;-59
2022/06/13 09:48:20;;;;;;;9.57;2.80;;;;;;;19.30;64.01;96586.22;10407572;28;20217;-54
2022/06/13 09:53:28;;;;;;;11.55;2.90;;;;;;;20.53;61.62;96575.91;10389705;28;20247;-56
2022/06/13 09:58:45;;;;;;;13.15;3.05;;;;;;;20.18;61.74;96579.94;10390328;28;20707;-60
2022/06/13 10:03:54;;;;;;;8.25;2.60;;;;;;;19.73;63.77;96617.38;10397334;28;20216;-54
2022/06/13 10:09:16;;;;;;;11.73;2.55;;;;;;;19.34;64.17;96621.94;10403554;28;20220;-57
2022/06/13 10:14:22;;;;;;;9.73;2.40;;;;;;;20.98;60.97;96571.03;10407757;28;20322;-54
2022/06/13 10:19:42;;;;;;;9.20;2.47;;;;;;;21.09;58.43;96510.06;10407120;28;20245;-54
2022/06/13 10:24:52;;;;;;;5.72;2.20;;;;;;;21.09;57.80;96492.22;10406610;28;20232;-58
2022/06/13 10:30:33;;;;;;;8.85;2.33;;;;;;;20.51;57.41;96477.66;10419750;28;20223;-55
2022/06/13 10:35:48;;;;;;;6.65;2.15;;;;;;;21.31;56.32;96487.13;10372768;28;20196;-54
2022/06/13 10:40:49;;;;;;;6.00;2.10;;;;;;;21.47;54.83;96463.50;10408577;28;20220;-59
2022/06/13 10:45:49;;;;;;;7.80;2.60;;;;;;;20.91;57.36;96509.06;10409650;28;20569;-58
2022/06/13 10:50:54;;;;;;;7.30;2.53;;;;;;;19.74;61.00;96564.00;10442136;28;20300;-54
2022/06/13 10:55:57;;;;;;;7.43;2.85;;;;;;;18.68;63.17;96592.88;10396866;28;20239;-55
2022/06/13 11:01:07;;;;;;;12.77;2.83;;;;;;;18.92;63.92;96608.31;10414492;28;20229;-56
2022/06/13 11:06:17;;;;;;;7.50;2.88;;;;;;;18.53;65.98;96654.16;10434497;28;20202;-54
2022/06/13 11:11:28;;;;;;;8.80;2.78;;;;;;;18.10;66.19;96653.81;10450016;28;20198;-52
2022/06/13 11:32:39;;;;;;;11.93;2.95;;;;;;;20.30;59.88;96570.19;10433424;28;20721;-56
2022/06/13 11:37:39;;;;;;;5.78;1.92;;;;;;;21.62;56.48;96521.72;10425675;28;20204;-60
2022/06/13 11:42:40;;;;;;;7.47;2.13;;;;;;;22.89;52.28;96455.94;10438849;28;20248;-57
2022/06/13 11:47:43;;;;;;;10.05;2.40;;;;;;;21.96;52.09;96437.41;10396117;28;20208;-61
2022/06/13 11:58:03;;;;;;;6.03;1.90;;;;;;;22.30;49.98;96408.19;10412109;28;20212;-55
2022/06/13 12:03:07;;;;;;;7.32;2.70;;;;;;;20.12;54.86;96477.94;10393899;28;20263;-60
2022/06/13 12:08:21;;;;;;;7.43;2.30;;;;;;;19.71;56.45;96505.97;10412046;28;20220;-58
2022/06/13 12:13:22;;;;;;;5.00;2.22;;;;;;;19.06;56.05;96498.34;10421289;28;20219;-58
2022/06/13 12:19:00;;;;;;;10.38;2.70;;;;;;;18.58;57.60;96551.91;10452515;28;20231;-58
2022/06/13 12:24:12;;;;;;;7.65;2.65;;;;;;;18.04;62.87;96687.28;10452896;28;20242;-54
2022/06/13 12:29:35;;;;;;;14.68;3.58;;;;;;;16.49;75.34;96891.41;10418722;28;20445;-58
2022/06/13 12:34:46;;;;;;;7.00;4.10;;;;;;;14.51;100.00;96882.28;10407000;28;20272;-59
2022/06/13 12:40:07;;;;;;;9.25;4.53;;;;;;;14.95;100.00;96865.75;10410878;28;20642;-61
2022/06/13 12:45:35;;;;;;;11.45;3.42;;;;;;;16.41;100.00;96831.53;10400575;28;20254;-58
2022/06/13 12:51:05;;;;;;;10.75;3.60;;;;;;;17.43;90.46;96786.19;10438103;28;20246;-54
2022/06/13 12:56:21;;;;;;;9.13;2.83;;;;;;;18.39;78.98;96747.22;10435374;28;20563;-61
2022/06/13 13:01:27;;;;;;;4.15;1.92;;;;;;;20.29;63.59;96568.59;10409314;28;20224;-55
2022/06/13 13:06:37;;;;;;;3.83;1.80;;;;;;;20.69;58.65;96515.94;10391919;28;20220;-54
2022/06/13 13:12:12;;;;;;;7.93;3.03;;;;;;;20.47;61.80;96617.50;10408904;28;20282;-55
2022/06/13 13:17:24;;;;;;;7.43;1.80;;;;;;;21.58;53.27;96484.06;10397776;28;20705;-57
2022/06/13 13:22:31;;;;;;;4.03;1.88;;;;;;;22.51;53.23;96521.53;10432804;28;20238;-56
2022/06/13 13:27:55;;;;;;;1.63;1.20;;;;;;;22.64;49.98;96452.88;10428637;28;20210;-61
2022/06/13 13:33:04;;;;;;;4.65;1.27;;;;;;;23.18;47.22;96407.00;10441093;28;20191;-58
2022/06/13 13:38:11;;;;;;;2.67;1.55;;;;;;;23.04;46.60;96414.53;10394540;28;20216;-61
2022/06/13 13:43:33;;;;;;;2.67;1.30;;;;;;;24.96;43.78;96412.03;10449198;28;20709;-61
2022/06/13 13:48:41;;;;;;;3.22;1.10;;;;;;;25.75;40.44;96339.88;10437374;28;20302;-60
2022/06/13 13:54:14;;;;;;;7.10;4.38;;;;;;;26.23;40.81;96396.94;10431050;28;20192;-59
2022/06/13 13:59:17;;;;;;;2.60;1.40;;;;;;;25.34;41.99;96401.34;10435555;28;20717;-60
2022/06/13 14:04:24;;;;;;;3.10;1.20;;;;;;;25.55;41.74;96413.81;10431112;28;20305;-62
2022/06/13 14:09:24;;;;;;;3.85;1.65;;;;;;;22.80;43.42;96332.69;10448587;28;20265;-62
2022/06/13 14:14:27;;;;;;;3.60;1.10;;;;;;;24.86;41.50;96377.13;10422874;28;20249;-59
2022/06/13 14:19:31;;;;;;;4.80;1.40;;;;;;;25.85;38.82;96339.09;10459749;23;20274;-58
2022/06/13 14:24:44;;;;;;;1.92;1.10;;;;;;;26.08;38.05;96333.28;10443133;28;20223;-55
2022/06/13 14:29:46;;;;;;;3.08;1.38;;;;;;;26.16;37.42;96318.53;10440951;28;20301;-60
2022/06/13 14:35:16;;;;;;;1.73;0.90;;;;;;;23.89;37.17;96245.88;10387141;28;20192;-57
2022/06/13 14:40:28;;;;;;;2.75;1.30;;;;;;;25.88;36.93;96309.03;10356137;28;20217;-58
2022/06/13 14:45:54;;;;;;;4.32;1.35;;;;;;;26.87;36.49;96328.50;10359307;28;20188;-59
2022/06/13 14:50:54;;;;;;;2.97;1.15;;;;;;;27.35;35.46;96311.22;10361246;28;20721;-58
2022/06/13 14:56:06;;;;;;;2.95;1.17;;;;;;;28.43;33.05;96275.66;10395151;28;20211;-60
2022/06/13 15:01:28;;;;;;;2.35;1.20;;;;;;;25.73;35.04;96223.97;10406080;28;20668;-60
2022/06/13 15:06:32;;;;;;;3.53;1.88;;;;;;;26.44;34.05;96247.38;10405632;28;20193;-59
2022/06/13 15:11:33;;;;;;;7.63;2.78;;;;;;;26.59;33.65;96243.06;10406029;28;20204;-60
2022/06/13 15:16:33;;;;;;;2.72;1.60;;;;;;;27.26;33.48;96253.66;10405454;28;20188;-58
2022/06/13 15:21:37;;;;;;;2.97;1.27;;;;;;;26.13;34.00;96241.22;10405299;28;20303;-54
2022/06/13 15:26:39;;;;;;;4.65;1.50;;;;;;;25.01;35.91;96264.69;10404020;28;20239;-55
2022/06/13 15:31:43;;;;;;;3.63;1.65;;;;;;;24.88;36.06;96259.78;10405682;28;20279;-52
2022/06/13 15:36:56;;;;;;;3.17;1.45;;;;;;;26.18;34.97;96286.84;10389944;28;20193;-55
2022/06/13 15:42:00;;;;;;;5.00;1.90;;;;;;;26.29;35.23;96296.50;10395160;28;20228;-56
2022/06/13 15:47:04;;;;;;;4.40;1.80;;;;;;;24.98;36.53;96283.13;10394645;28;20671;-56
2022/06/13 15:52:26;;;;;;;4.45;1.77;;;;;;;22.29;39.87;96291.00;10412544;28;20212;-56
2022/06/13 15:57:28;;;;;;;8.00;1.90;;;;;;;23.44;39.47;96354.72;10412948;28;20181;-56
2022/06/13 16:02:33;;;;;;;5.00;1.80;;;;;;;22.34;41.06;96365.84;10412796;28;20287;-58
2022/06/13 16:07:34;;;;;;;6.82;1.95;;;;;;;21.26;43.29;96412.44;10409116;28;20201;-57
2022/06/13 16:12:37;;;;;;;4.88;1.77;;;;;;;20.15;46.28;96471.34;10395342;28;20586;-52
2022/06/13 16:17:43;;;;;;;5.05;1.90;;;;;;;19.42;48.66;96513.59;10401048;28;20283;-52
2022/06/13 16:22:44;;;;;;;4.15;2.05;;;;;;;19.15;50.05;96579.38;10377630;28;20236;-54
2022/06/13 16:27:45;;;;;;;9.02;2.53;;;;;;;16.99;71.22;96931.13;10354207;28;20197;-55
2022/06/13 16:32:52;;;;;;;5.25;2.05;;;;;;;15.43;84.42;96910.28;10354153;28;20388;-58
2022/06/13 16:38:04;;;;;;;2.20;1.90;;;;;;;15.01;89.54;96889.78;10353741;28;20283;-57
2022/06/13 16:43:05;;;;;;;4.05;1.80;;;;;;;15.19;89.63;96892.91;10370052;28;20280;-59
2022/06/13 16:48:15;;;;;;;4.50;1.80;;;;;;;15.74;86.68;96888.13;10369971;28;20279;-59
2022/06/13 16:53:16;;;;;;;4.15;1.85;;;;;;;16.42;80.96;96856.16;10353274;28;20563;-51
2022/06/13 16:58:28;;;;;;;3.67;1.65;;;;;;;17.21;78.79;96852.50;10393303;28;20197;-55
2022/06/13 17:04:00;;;;;;;5.97;2.00;;;;;;;17.55;73.42;96815.53;10411282;28;20315;-56
2022/06/13 17:09:05;;;;;;;8.25;2.58;;;;;;;17.69;71.75;96804.00;10392959;28;20668;-54
2022/06/13 17:14:05;;;;;;;3.28;1.90;;;;;;;17.45;71.78;96818.59;10416657;28;20655;-57
2022/06/13 17:19:05;;;;;;;3.67;1.92;;;;;;;17.26;72.97;96858.00;10420451;28;20204;-54
2022/06/13 17:24:06;;;;;;;5.78;2.13;;;;;;;17.14;71.75;96832.28;10443487;28;20235;-57
2022/06/13 17:34:25;;;;;;;5.45;2.40;;;;;;;16.80;70.51;96821.47;10450736;28;20713;-57
2022/06/13 17:39:26;;;;;;;6.25;2.20;;;;;;;16.77;71.64;96854.41;10443506;28;20310;-55
2022/06/13 17:44:27;;;;;;;7.70;2.28;;;;;;;16.41;70.93;96842.09;10401521;28;20228;-57
2022/06/13 17:49:27;;;;;;;7.15;2.40;;;;;;;16.33;70.61;96842.25;10350005;28;20707;-58
2022/06/13 17:54:28;;;;;;;6.72;2.35;;;;;;;16.20;71.32;96852.69;10367000;28;20185;-58
2022/06/13 17:59:28;;;;;;;8.05;2.17;;;;;;;16.26;72.49;96896.88;10366838;28;20217;-58
2022/06/13 18:04:28;;;;;;;6.13;2.25;;;;;;;15.96;70.51;96869.72;10367767;28;20641;-58
2022/06/13 18:09:31;;;;;;;14.70;2.55;;;;;;;15.83;69.22;96833.41;10368032;28;20244;-58
2022/06/13 18:14:31;;;;;;;6.45;2.53;;;;;;;15.75;68.52;96828.22;10367628;28;20563;-58
2022/06/13 18:19:32;;;;;;;8.63;3.17;;;;;;;15.60;68.50;96836.97;10367164;28;20252;-56
2022/06/13 18:24:32;;;;;;;6.20;2.13;;;;;;;15.39;68.05;96829.00;10349610;28;20606;-58
2022/06/13 18:29:34;;;;;;;4.28;1.88;;;;;;;15.29;69.16;96866.25;10366677;28;20209;-55
2022/06/13 18:34:35;;;;;;;4.28;1.80;;;;;;;15.25;67.86;96843.84;10349237;28;20220;-62
2022/06/13 18:39:38;;;;;;;6.07;2.10;;;;;;;14.84;65.87;96804.72;10366709;28;20271;-55
2022/06/13 18:44:39;;;;;;;3.97;1.80;;;;;;;15.10;64.99;96801.63;10366328;28;20600;-52
2022/06/13 18:49:39;;;;;;;1.95;1.60;;;;;;;14.73;65.44;96811.25;10367098;28;20213;-55
2022/06/13 18:54:40;;;;;;;4.15;2.00;;;;;;;14.57;64.41;96780.56;10366639;28;20189;-58
2022/06/13 18:59:42;;;;;;;6.18;2.03;;;;;;;14.52;65.65;96819.84;10366554;28;20209;-58
2022/06/13 19:04:47;;;;;;;5.20;1.50;;;;;;;14.31;65.49;96825.78;10366543;28;20220;-52
2022/06/13 19:09:49;;;;;;;7.20;2.00;;;;;;;14.05;67.42;96877.00;10366838;28;20271;-56
2022/06/13 19:14:55;;;;;;;5.60;1.58;;;;;;;13.68;68.78;96899.59;10374662;28;20192;-57
2022/06/13 19:19:56;;;;;;;4.88;1.67;;;;;;;13.48;68.92;96900.00;10356510;28;20237;-57
2022/06/13 19:24:56;;;;;;;2.92;1.90;;;;;;;13.36;69.85;96928.47;10356611;28;20695;-53
2022/06/13 19:29:57;;;;;;;5.43;1.83;;;;;;;13.15;70.38;96931.59;10373971;28;20578;-53
2022/06/13 19:34:59;;;;;;;6.60;1.73;;;;;;;12.38;74.86;97016.03;10373461;28;20582;-53
2022/06/13 19:40:00;;;;;;;7.45;2.17;;;;;;;11.88;78.15;97058.81;10356254;28;20256;-53
2022/06/13 19:45:01;;;;;;;3.92;2.00;;;;;;;11.31;80.84;97065.34;10355182;28;20308;-50
2022/06/13 19:50:02;;;;;;;3.73;1.70;;;;;;;11.04;82.50;97061.84;10372971;28;20692;-58
2022/06/13 19:55:10;;;;;;;4.57;1.90;;;;;;;10.81;86.13;97071.13;10372475;28;20193;-54
2022/06/13 20:00:11;;;;;;;6.33;1.73;;;;;;;10.86;87.18;97068.91;10354700;28;20715;-50
2022/06/13 20:05:11;;;;;;;2.27;1.70;;;;;;;10.54;89.68;97080.69;10372241;28;20221;-50
2022/06/13 20:10:11;;;;;;;5.77;1.70;;;;;;;10.68;90.24;97079.38;10371539;28;20696;-50
2022/06/13 20:15:12;;;;;;;4.80;2.00;;;;;;;10.45;94.37;97087.63;10371691;28;20221;-50
2022/06/13 20:20:12;;;;;;;3.17;1.80;;;;;;;10.83;93.06;97074.44;10371156;28;20629;-54
2022/06/13 20:25:13;;;;;;;4.70;2.00;;;;;;;10.96;92.00;97081.91;10370334;28;20594;-52
2022/06/13 20:30:15;;;;;;;4.33;1.67;;;;;;;11.09;88.68;97071.03;10371420;28;20217;-54
2022/06/13 20:35:16;;;;;;;5.73;1.80;;;;;;;11.07;88.04;97074.66;10370480;28;20186;-56
2022/06/13 20:40:18;;;;;;;3.72;1.73;;;;;;;10.96;90.06;97085.34;10353696;28;20209;-55
2022/06/13 20:45:21;;;;;;;5.80;1.63;;;;;;;10.99;90.36;97092.91;10352791;28;20267;-57
2022/06/13 20:50:28;;;;;;;8.33;2.43;;;;;;;10.85;89.82;97093.44;10370388;28;20209;-55
2022/06/13 20:55:29;;;;;;;2.50;1.70;;;;;;;10.83;89.25;97084.91;10370523;28;20193;-56
2022/06/13 21:00:32;;;;;;;2.63;2.17;;;;;;;10.84;90.13;97089.16;10369528;28;20217;-57
2022/06/13 21:05:34;;;;;;;4.63;1.70;;;;;;;10.83;89.65;97085.75;10352504;28;20217;-53
2022/06/13 21:10:35;;;;;;;4.03;1.70;;;;;;;11.04;89.29;97082.84;10369195;28;20565;-53
2022/06/13 21:15:36;;;;;;;6.27;2.17;;;;;;;11.14;88.09;97087.16;10352334;28;20200;-52
2022/06/13 21:20:42;;;;;;;2.87;1.63;;;;;;;11.23;87.99;97081.03;10368411;28;20236;-52
2022/06/13 21:25:43;;;;;;;5.10;1.63;;;;;;;11.15;88.64;97083.56;10369660;28;20255;-55
2022/06/13 21:30:44;;;;;;;7.00;1.80;;;;;;;11.01;89.82;97083.13;10361184;28;20254;-51
2022/06/13 21:35:45;;;;;;;8.13;1.70;;;;;;;10.96;89.53;97089.78;10369698;28;20185;-52
2022/06/13 21:40:48;;;;;;;5.00;1.97;;;;;;;10.90;90.18;97091.19;10385443;28;20586;-56
2022/06/13 21:45:49;;;;;;;5.20;1.83;;;;;;;10.66;92.21;97087.38;10350867;28;20255;-56
2022/06/13 21:50:51;;;;;;;4.00;2.00;;;;;;;10.48;92.81;97083.91;10368535;28;20547;-50
2022/06/13 21:55:51;;;;;;;3.83;1.70;;;;;;;10.35;94.44;97090.31;10367347;28;20189;-54
2022/06/13 22:00:52;;;;;;;6.80;2.27;;;;;;;10.21;96.52;97092.53;10365721;28;20213;-53
2022/06/13 22:05:52;;;;;;;5.67;1.70;;;;;;;10.04;99.50;97094.94;10368032;28;20209;-54
2022/06/13 22:10:52;;;;;;;2.70;2.07;;;;;;;9.82;100.00;97096.13;10367788;28;20225;-54
2022/06/13 22:15:53;;;;;;;5.83;2.60;;;;;;;9.71;100.00;97104.13;10368127;28;20204;-56
2022/06/13 22:20:55;;;;;;;6.13;1.97;;;;;;;9.61;100.00;97093.69;10367397;28;20237;-54
2022/06/13 22:25:55;;;;;;;4.80;2.10;;;;;;;9.72;100.00;97093.53;10367489;28;20561;-54
2022/06/13 22:30:56;;;;;;;4.47;1.70;;;;;;;9.96;99.39;97081.75;10367424;28;20209;-55
2022/06/13 22:35:56;;;;;;;4.57;1.93;;;;;;;9.93;98.49;97082.88;10367189;28;20229;-55
2022/06/13 22:40:58;;;;;;;4.20;2.40;;;;;;;9.80;99.29;97082.34;10366969;28;20225;-53
2022/06/13 22:45:58;;;;;;;4.37;1.80;;;;;;;9.83;99.07;97082.06;10371800;28;20196;-55
2022/06/13 22:51:03;;;;;;;3.47;1.73;;;;;;;9.82;98.16;97075.19;10380218;28;20235;-55
2022/06/13 22:56:04;;;;;;;2.80;1.57;;;;;;;9.90;98.33;97080.53;10363096;28;20193;-53
2022/06/13 23:01:04;;;;;;;3.87;1.40;;;;;;;9.91;96.78;97084.00;10380142;28;20229;-53
2022/06/13 23:06:05;;;;;;;3.50;1.60;;;;;;;9.87;98.27;97074.78;10380306;28;20197;-53
2022/06/13 23:11:05;;;;;;;2.67;1.80;;;;;;;9.87;97.90;97083.44;10380002;28;20240;-53
2022/06/13 23:16:06;;;;;;;2.27;1.87;;;;;;;9.67;97.93;97076.63;10379998;28;20225;-56
2022/06/13 23:21:06;;;;;;;3.07;1.40;;;;;;;9.51;100.00;97087.66;10379815;28;20237;-54
2022/06/13 23:26:06;;;;;;;3.07;1.63;;;;;;;9.44;100.00;97095.25;10379440;28;20201;-51
2022/06/13 23:31:07;;;;;;;1.70;1.57;;;;;;;9.16;100.00;97099.50;10379632;28;20271;-53
2022/06/13 23:36:09;;;;;;;5.20;2.10;;;;;;;8.82;100.00;97100.75;10379473;28;20189;-51
2022/06/13 23:41:09;;;;;;;4.63;2.17;;;;;;;8.72;100.00;97103.34;10379701;28;20220;-52
2022/06/13 23:46:09;;;;;;;4.93;1.83;;;;;;;8.62;100.00;97096.44;10379628;28;20255;-50
2022/06/13 23:51:10;;;;;;;4.27;1.97;;;;;;;8.39;100.00;97096.63;10378964;28;20208;-51
2022/06/13 23:56:10;;;;;;;3.10;1.70;;;;;;;8.19;100.00;97103.56;10378339;28;20211;-53
